Hood Island — C6LU4 — position and weather

sailwx.info

Track history (hours):
 
Tides and Currents Weather Stations Pressure Air Temp Water Temp Dewpoint Dewpoint Depression Visibility Wind Speed Wind Dir Waves Ship Positions

Hood Island

Last reported at 2018-Jun-20 18:56 UTC. Time now 2018-Jun-20 19:23 UTC.
Position N 59°55' E 030°14'.

Type: Ship (hazmat cat B). MMSI: 308512000.

Date/timePositionNaut miles runAvg speedWind from/ knotsBaromVisibWave heightAir tempDewpointWater temp
2018-Jun-20 18:56N 59°55' E 030°14'0 0.0
2018-Jun-20 18:29N 59°55' E 030°14'0 0.0
2018-Jun-20 17:59N 59°55' E 030°14'0 0.0
2018-Jun-20 17:29N 59°55' E 030°14'0 0.0
2018-Jun-20 16:59N 59°55' E 030°14'0 0.0
2018-Jun-20 16:29N 59°55' E 030°14'0 0.0
2018-Jun-20 15:59N 59°55' E 030°14'0 0.0
2018-Jun-20 15:29N 59°55' E 030°14'0 0.0
2018-Jun-20 14:59N 59°55' E 030°14'0 0.0
2018-Jun-20 14:29N 59°55' E 030°14'0 0.0
2018-Jun-20 13:56N 59°55' E 030°14'0 0.0
2018-Jun-20 13:29N 59°55' E 030°14'0 0.0
2018-Jun-20 12:59N 59°55' E 030°14'0 0.0
2018-Jun-20 12:29N 59°55' E 030°14'0 0.0
2018-Jun-20 11:59N 59°55' E 030°14'0 0.0
2018-Jun-20 11:29N 59°55' E 030°14'0 0.0
2018-Jun-20 10:59N 59°55' E 030°14'0 0.0
2018-Jun-20 10:29N 59°55' E 030°14'0 0.0
2018-Jun-20 09:59N 59°55' E 030°14'0 0.0
2018-Jun-20 09:29N 59°55' E 030°14'0 0.0
2018-Jun-20 08:59N 59°55' E 030°14'0 0.0
2018-Jun-20 08:29N 59°55' E 030°14'0 0.0
2018-Jun-20 07:59N 59°55' E 030°14'0 0.0
2018-Jun-20 07:29N 59°55' E 030°14'0 0.0
2018-Jun-20 06:58N 59°55' E 030°14'0 0.0
2018-Jun-20 06:28N 59°55' E 030°14'0 0.0
2018-Jun-20 05:55N 59°55' E 030°14'0 0.0
2018-Jun-20 05:29N 59°55' E 030°14'0 0.0
2018-Jun-20 04:59N 59°55' E 030°14'0 0.0
2018-Jun-20 04:28N 59°55' E 030°14'0 0.0
2018-Jun-20 03:58N 59°55' E 030°14'0 0.0
2018-Jun-20 03:28N 59°55' E 030°14'0 0.0
2018-Jun-20 02:58N 59°55' E 030°14'0 0.0
2018-Jun-20 02:28N 59°55' E 030°14'0 0.0
2018-Jun-20 01:58N 59°55' E 030°14'0 0.0
2018-Jun-20 01:28N 59°55' E 030°14'0 0.0
2018-Jun-20 00:58N 59°55' E 030°14'0 0.0
2018-Jun-20 00:28N 59°55' E 030°14'0 0.0
2018-Jun-19 23:58N 59°55' E 030°14'0 0.0
2018-Jun-19 23:28N 59°55' E 030°14'0 0.0
2018-Jun-19 22:58N 59°55' E 030°14'0 0.0
2018-Jun-19 22:28N 59°55' E 030°14'0 0.0
2018-Jun-19 21:58N 59°55' E 030°14'0 0.0
2018-Jun-19 21:28N 59°55' E 030°14'0 0.0
2018-Jun-19 20:55N 59°55' E 030°14'0 0.0
2018-Jun-19 20:28N 59°55' E 030°14'0 0.0
2018-Jun-19 19:58N 59°55' E 030°14'0 0.0
2018-Jun-19 19:29N 59°55' E 030°14'0 0.0
2018-Jun-19 18:58N 59°55' E 030°14'0 0.0
2018-Jun-19 18:28N 59°55' E 030°14'0 0.0
2018-Jun-19 17:58N 59°55' E 030°14'0 0.0
2018-Jun-19 17:28N 59°55' E 030°14'0 0.0
2018-Jun-19 16:58N 59°55' E 030°14'0 0.0
2018-Jun-19 16:28N 59°55' E 030°14'0 0.0
2018-Jun-19 15:58N 59°55' E 030°14'0 0.0
2018-Jun-19 15:28N 59°55' E 030°14'0 0.0
2018-Jun-19 14:58N 59°55' E 030°14'0 0.0
2018-Jun-19 14:28N 59°55' E 030°14'0 0.0
2018-Jun-19 13:58N 59°55' E 030°14'0 0.0
2018-Jun-19 13:28N 59°55' E 030°14'0 0.0
2018-Jun-19 12:58N 59°55' E 030°14'0 0.0
2018-Jun-19 12:28N 59°55' E 030°14'0 0.0
2018-Jun-19 11:58N 59°55' E 030°14'0 0.0
2018-Jun-19 11:28N 59°55' E 030°14'0 0.0
2018-Jun-19 10:58N 59°55' E 030°14'0 0.0
2018-Jun-19 10:28N 59°55' E 030°14'0 0.0
2018-Jun-19 09:58N 59°55' E 030°14'0 0.0
2018-Jun-19 09:28N 59°55' E 030°14'0 0.0
2018-Jun-19 08:58N 59°55' E 030°14'0 0.0
2018-Jun-19 08:28N 59°55' E 030°14'0 0.0
2018-Jun-19 07:58N 59°55' E 030°14'0 0.0
2018-Jun-19 07:28N 59°55' E 030°14'0 0.5
2018-Jun-19 07:00N 59°55' E 030°14'2 4.1
2018-Jun-19 06:30N 59°53' E 030°12'3 5.7
2018-Jun-19 06:00N 59°54' E 030°06'5 9.5
2018-Jun-19 05:29N 59°56' E 029°57'19 9.5
2018-Jun-19 03:31N 60°02' E 029°22'4 0.5
2018-Jun-18 20:44N 60°05' E 029°20'0 0.0
2018-Jun-18 18:57N 60°05' E 029°20'0 0.0
2018-Jun-18 18:30N 60°05' E 029°20'0 0.0
2018-Jun-18 17:32N 60°05' E 029°20'0 0.0
2018-Jun-18 17:24N 60°05' E 029°20'0 0.0
2018-Jun-18 16:56N 60°05' E 029°20'0 0.0
2018-Jun-18 15:14N 60°05' E 029°20'0 0.0
2018-Jun-18 14:48N 60°05' E 029°20'0 0.3
2018-Jun-18 14:27N 60°05' E 029°20'0 0.2
2018-Jun-18 13:56N 60°05' E 029°20'0 0.0
2018-Jun-18 13:26N 60°05' E 029°20'0 0.0
2018-Jun-18 12:41N 60°05' E 029°20'0 0.0
2018-Jun-18 12:30N 60°05' E 029°20'0 0.0
2018-Jun-18 11:47N 60°05' E 029°20'0 0.0
2018-Jun-18 11:29N 60°05' E 029°20'0 0.0
2018-Jun-18 10:56N 60°05' E 029°20'0 0.0
2018-Jun-18 10:08N 60°05' E 029°20'0 0.0
2018-Jun-18 09:44N 60°05' E 029°20'0 0.1
2018-Jun-18 08:50N 60°06' E 029°20'0 0.1
2018-Jun-18 07:49N 60°06' E 029°20'0 0.0
2018-Jun-18 07:27N 60°06' E 029°20'0 0.0
2018-Jun-18 05:16N 60°06' E 029°20'0 0.0
2018-Jun-18 04:53N 60°06' E 029°20'0 0.1
2018-Jun-18 04:28N 60°06' E 029°20'0 0.0
2018-Jun-18 03:44N 60°06' E 029°20'0 0.0
2018-Jun-17 12:28N 60°06' E 029°20'0 0.0
2018-Jun-17 11:58N 60°06' E 029°20'0 0.0
2018-Jun-17 10:31N 60°06' E 029°20'0 0.0
2018-Jun-17 10:16N 60°06' E 029°20'0 0.1
2018-Jun-17 09:49N 60°05' E 029°20'0 0.1
2018-Jun-17 09:28N 60°05' E 029°20'0 0.0
2018-Jun-17 08:57N 60°05' E 029°20'0 0.0
2018-Jun-17 08:21N 60°05' E 029°20'0 0.5
2018-Jun-17 08:00N 60°05' E 029°19'5 9.1
2018-Jun-17 07:30N 60°02' E 029°13'712.6
2018-Jun-17 06:57N 60°02' E 028°59'716.4
2018-Jun-17 06:30N 60°02' E 028°44'816.5
2018-Jun-17 06:00N 60°03' E 028°28'816.4
2018-Jun-17 05:30N 60°07' E 028°14'816.8
2018-Jun-17 05:00N 60°09' E 027°58'816.0
2018-Jun-17 04:30N 60°09' E 027°42'816.9
2018-Jun-17 04:00N 60°05' E 027°27'817.0
2018-Jun-17 03:30N 60°01' E 027°13'816.1
2018-Jun-17 03:00N 59°58' E 026°58'917.1
2018-Jun-17 02:29N 59°59' E 026°40'817.2
2018-Jun-17 02:00N 59°57' E 026°24'1016.8
2018-Jun-17 01:24N 59°55' E 026°04'716.7
2018-Jun-17 00:58N 59°53' E 025°50'1316.7
2018-Jun-17 00:11N 59°50' E 025°25'316.6
2018-Jun-17 00:00N 59°49' E 025°19'816.6
2018-Jun-16 23:30N 59°48' E 025°03'816.7
2018-Jun-16 23:00N 59°46' E 024°46'816.8
2018-Jun-16 22:30N 59°44' E 024°30'816.7
2018-Jun-16 22:00N 59°42' E 024°15'816.7
2018-Jun-16 21:30N 59°39' E 023°59'916.5
2018-Jun-16 20:59N 59°36' E 023°43'816.7
2018-Jun-16 20:30N 59°34' E 023°28'816.7
2018-Jun-16 20:00N 59°31' E 023°12'816.9
2018-Jun-16 19:30N 59°28' E 022°57'916.9
2018-Jun-16 18:59N 59°25' E 022°40'816.7
2018-Jun-16 18:30N 59°21' E 022°27'916.8
2018-Jun-16 17:59N 59°16' E 022°13'916.8
2018-Jun-16 17:27N 59°10' E 021°59'716.7
2018-Jun-16 17:00N 59°06' E 021°48'816.5
2018-Jun-16 16:30N 58°60' E 021°37'816.6
2018-Jun-16 16:00N 58°53' E 021°28'816.5
2018-Jun-16 15:30N 58°47' E 021°18'816.5
2018-Jun-16 15:00N 58°40' E 021°09'816.6
2018-Jun-16 14:30N 58°33' E 021°01'816.7
2018-Jun-16 14:00N 58°26' E 020°51'916.8
2018-Jun-16 13:28N 58°19' E 020°40'816.8
2018-Jun-16 13:00N 58°13' E 020°30'816.8
2018-Jun-16 12:30N 58°06' E 020°21'21116.3
2018-Jun-15 23:37N 55°42' E 015°40'216.3
2018-Jun-15 23:29N 55°41' E 015°36'916.4
2018-Jun-15 22:56N 55°37' E 015°22'716.5
2018-Jun-15 22:30N 55°34' E 015°12'816.8
2018-Jun-15 22:00N 55°30' E 014°59'816.8
2018-Jun-15 21:30N 55°26' E 014°46'816.6
2018-Jun-15 21:00N 55°21' E 014°33'816.2
2018-Jun-15 20:30N 55°14' E 014°25'816.6
2018-Jun-15 20:00N 55°08' E 014°16'816.5
2018-Jun-15 19:30N 55°02' E 014°06'816.6
2018-Jun-15 19:00N 54°59' E 013°53'1516.9
2018-Jun-15 18:07N 54°54' E 013°28'1016.6
2018-Jun-15 17:30N 54°51' E 013°11'2316.7
2018-Jun-15 16:07N 54°41' E 012°34'217.4
2018-Jun-15 16:00N 54°40' E 012°32'917.1
2018-Jun-15 15:30N 54°36' E 012°19'2214.4
2018-Jun-15 14:01N 54°25' E 011°47'717.6
2018-Jun-15 13:36N 54°28' E 011°36'217.7
2018-Jun-15 13:30N 54°29' E 011°33'917.1
2018-Jun-15 13:00N 54°32' E 011°20'917.5
2018-Jun-15 12:30N 54°36' E 011°07'917.1
2018-Jun-15 12:00N 54°41' E 010°54'816.0
2018-Jun-15 11:30N 54°49' E 010°51'917.4
2018-Jun-15 11:00N 54°57' E 010°56'817.0
2018-Jun-15 10:30N 55°05' E 011°02'816.8
2018-Jun-15 10:00N 55°13' E 011°06'1017.7
2018-Jun-15 09:27N 55°23' E 011°01'121 6.6
2018-Jun-14 15:02N 57°23' E 011°28'016.1
2018-Jun-14 15:00N 57°23' E 011°28'1115.6
2018-Jun-14 14:17N 57°32' E 011°15'415.9
2018-Jun-14 14:00N 57°35' E 011°09'815.7
2018-Jun-14 13:30N 57°40' E 010°57'9 0.6
2018-Jun-13 22:27N 57°41' E 010°41'1 2.2
2018-Jun-13 21:59N 57°42' E 010°42'4 7.5
2018-Jun-13 21:23N 57°46' E 010°45'2116.9
2018-Jun-13 20:09N 57°51' E 010°07'416.6
2018-Jun-13 19:53N 57°50' E 009°59'3317.1
2018-Jun-13 17:57N 57°43' E 008°58'18316.7
2018-Jun-13 06:58N 57°45' E 003°15'19215.9
2018-Jun-12 18:54N 58°35' W 002°37'718.0
2018-Jun-12 18:30N 58°40' W 002°47'1019.3
2018-Jun-12 18:00N 58°43' W 003°04'1019.2
2018-Jun-12 17:30N 58°43' W 003°23'  
Track history (hours):
 
Tides and Currents Weather Stations Pressure Air Temp Water Temp Dewpoint Dewpoint Depression Visibility Wind Speed Wind Dir Waves Ship Positions

Hood Island

Last reported at 2018-Jun-20 18:56 UTC. Time now 2018-Jun-20 19:23 UTC.
Position N 59°55' E 030°14'.

Type: Ship (hazmat cat B). MMSI: 308512000.

Date/timePositionNaut miles runAvg speedWind from/ knotsBaromVisibWave heightAir tempDewpointWater temp
2018-Jun-20 18:56N 59°55' E 030°14'0 0.0
2018-Jun-20 18:29N 59°55' E 030°14'0 0.0
2018-Jun-20 17:59N 59°55' E 030°14'0 0.0
2018-Jun-20 17:29N 59°55' E 030°14'0 0.0
2018-Jun-20 16:59N 59°55' E 030°14'0 0.0
2018-Jun-20 16:29N 59°55' E 030°14'0 0.0
2018-Jun-20 15:59N 59°55' E 030°14'0 0.0
2018-Jun-20 15:29N 59°55' E 030°14'0 0.0
2018-Jun-20 14:59N 59°55' E 030°14'0 0.0
2018-Jun-20 14:29N 59°55' E 030°14'0 0.0
2018-Jun-20 13:56N 59°55' E 030°14'0 0.0
2018-Jun-20 13:29N 59°55' E 030°14'0 0.0
2018-Jun-20 12:59N 59°55' E 030°14'0 0.0
2018-Jun-20 12:29N 59°55' E 030°14'0 0.0
2018-Jun-20 11:59N 59°55' E 030°14'0 0.0
2018-Jun-20 11:29N 59°55' E 030°14'0 0.0
2018-Jun-20 10:59N 59°55' E 030°14'0 0.0
2018-Jun-20 10:29N 59°55' E 030°14'0 0.0
2018-Jun-20 09:59N 59°55' E 030°14'0 0.0
2018-Jun-20 09:29N 59°55' E 030°14'0 0.0
2018-Jun-20 08:59N 59°55' E 030°14'0 0.0
2018-Jun-20 08:29N 59°55' E 030°14'0 0.0
2018-Jun-20 07:59N 59°55' E 030°14'0 0.0
2018-Jun-20 07:29N 59°55' E 030°14'0 0.0
2018-Jun-20 06:58N 59°55' E 030°14'0 0.0
2018-Jun-20 06:28N 59°55' E 030°14'0 0.0
2018-Jun-20 05:55N 59°55' E 030°14'0 0.0
2018-Jun-20 05:29N 59°55' E 030°14'0 0.0
2018-Jun-20 04:59N 59°55' E 030°14'0 0.0
2018-Jun-20 04:28N 59°55' E 030°14'0 0.0
2018-Jun-20 03:58N 59°55' E 030°14'0 0.0
2018-Jun-20 03:28N 59°55' E 030°14'0 0.0
2018-Jun-20 02:58N 59°55' E 030°14'0 0.0
2018-Jun-20 02:28N 59°55' E 030°14'0 0.0
2018-Jun-20 01:58N 59°55' E 030°14'0 0.0
2018-Jun-20 01:28N 59°55' E 030°14'0 0.0
2018-Jun-20 00:58N 59°55' E 030°14'0 0.0
2018-Jun-20 00:28N 59°55' E 030°14'0 0.0
2018-Jun-19 23:58N 59°55' E 030°14'0 0.0
2018-Jun-19 23:28N 59°55' E 030°14'0 0.0
2018-Jun-19 22:58N 59°55' E 030°14'0 0.0
2018-Jun-19 22:28N 59°55' E 030°14'0 0.0
2018-Jun-19 21:58N 59°55' E 030°14'0 0.0
2018-Jun-19 21:28N 59°55' E 030°14'0 0.0
2018-Jun-19 20:55N 59°55' E 030°14'0 0.0
2018-Jun-19 20:28N 59°55' E 030°14'0 0.0
2018-Jun-19 19:58N 59°55' E 030°14'0 0.0
2018-Jun-19 19:29N 59°55' E 030°14'0 0.0
2018-Jun-19 18:58N 59°55' E 030°14'0 0.0
2018-Jun-19 18:28N 59°55' E 030°14'0 0.0
2018-Jun-19 17:58N 59°55' E 030°14'0 0.0
2018-Jun-19 17:28N 59°55' E 030°14'0 0.0
2018-Jun-19 16:58N 59°55' E 030°14'0 0.0
2018-Jun-19 16:28N 59°55' E 030°14'0 0.0
2018-Jun-19 15:58N 59°55' E 030°14'0 0.0
2018-Jun-19 15:28N 59°55' E 030°14'0 0.0
2018-Jun-19 14:58N 59°55' E 030°14'0 0.0
2018-Jun-19 14:28N 59°55' E 030°14'0 0.0
2018-Jun-19 13:58N 59°55' E 030°14'0 0.0
2018-Jun-19 13:28N 59°55' E 030°14'0 0.0
2018-Jun-19 12:58N 59°55' E 030°14'0 0.0
2018-Jun-19 12:28N 59°55' E 030°14'0 0.0
2018-Jun-19 11:58N 59°55' E 030°14'0 0.0
2018-Jun-19 11:28N 59°55' E 030°14'0 0.0
2018-Jun-19 10:58N 59°55' E 030°14'0 0.0
2018-Jun-19 10:28N 59°55' E 030°14'0 0.0
2018-Jun-19 09:58N 59°55' E 030°14'0 0.0
2018-Jun-19 09:28N 59°55' E 030°14'0 0.0
2018-Jun-19 08:58N 59°55' E 030°14'0 0.0
2018-Jun-19 08:28N 59°55' E 030°14'0 0.0
2018-Jun-19 07:58N 59°55' E 030°14'0 0.0
2018-Jun-19 07:28N 59°55' E 030°14'0 0.5
2018-Jun-19 07:00N 59°55' E 030°14'2 4.1
2018-Jun-19 06:30N 59°53' E 030°12'3 5.7
2018-Jun-19 06:00N 59°54' E 030°06'5 9.5
2018-Jun-19 05:29N 59°56' E 029°57'19 9.5
2018-Jun-19 03:31N 60°02' E 029°22'4 0.5
2018-Jun-18 20:44N 60°05' E 029°20'0 0.0
2018-Jun-18 18:57N 60°05' E 029°20'0 0.0
2018-Jun-18 18:30N 60°05' E 029°20'0 0.0
2018-Jun-18 17:32N 60°05' E 029°20'0 0.0
2018-Jun-18 17:24N 60°05' E 029°20'0 0.0
2018-Jun-18 16:56N 60°05' E 029°20'0 0.0
2018-Jun-18 15:14N 60°05' E 029°20'0 0.0
2018-Jun-18 14:48N 60°05' E 029°20'0 0.3
2018-Jun-18 14:27N 60°05' E 029°20'0 0.2
2018-Jun-18 13:56N 60°05' E 029°20'0 0.0
2018-Jun-18 13:26N 60°05' E 029°20'0 0.0
2018-Jun-18 12:41N 60°05' E 029°20'0 0.0
2018-Jun-18 12:30N 60°05' E 029°20'0 0.0
2018-Jun-18 11:47N 60°05' E 029°20'0 0.0
2018-Jun-18 11:29N 60°05' E 029°20'0 0.0
2018-Jun-18 10:56N 60°05' E 029°20'0 0.0
2018-Jun-18 10:08N 60°05' E 029°20'0 0.0
2018-Jun-18 09:44N 60°05' E 029°20'0 0.1
2018-Jun-18 08:50N 60°06' E 029°20'0 0.1
2018-Jun-18 07:49N 60°06' E 029°20'0 0.0
2018-Jun-18 07:27N 60°06' E 029°20'0 0.0
2018-Jun-18 05:16N 60°06' E 029°20'0 0.0
2018-Jun-18 04:53N 60°06' E 029°20'0 0.1
2018-Jun-18 04:28N 60°06' E 029°20'0 0.0
2018-Jun-18 03:44N 60°06' E 029°20'0 0.0
2018-Jun-17 12:28N 60°06' E 029°20'0 0.0
2018-Jun-17 11:58N 60°06' E 029°20'0 0.0
2018-Jun-17 10:31N 60°06' E 029°20'0 0.0
2018-Jun-17 10:16N 60°06' E 029°20'0 0.1
2018-Jun-17 09:49N 60°05' E 029°20'0 0.1
2018-Jun-17 09:28N 60°05' E 029°20'0 0.0
2018-Jun-17 08:57N 60°05' E 029°20'0 0.0
2018-Jun-17 08:21N 60°05' E 029°20'0 0.5
2018-Jun-17 08:00N 60°05' E 029°19'5 9.1
2018-Jun-17 07:30N 60°02' E 029°13'712.6
2018-Jun-17 06:57N 60°02' E 028°59'716.4
2018-Jun-17 06:30N 60°02' E 028°44'816.5
2018-Jun-17 06:00N 60°03' E 028°28'816.4
2018-Jun-17 05:30N 60°07' E 028°14'816.8
2018-Jun-17 05:00N 60°09' E 027°58'816.0
2018-Jun-17 04:30N 60°09' E 027°42'816.9
2018-Jun-17 04:00N 60°05' E 027°27'817.0
2018-Jun-17 03:30N 60°01' E 027°13'816.1
2018-Jun-17 03:00N 59°58' E 026°58'917.1
2018-Jun-17 02:29N 59°59' E 026°40'817.2
2018-Jun-17 02:00N 59°57' E 026°24'1016.8
2018-Jun-17 01:24N 59°55' E 026°04'716.7
2018-Jun-17 00:58N 59°53' E 025°50'1316.7
2018-Jun-17 00:11N 59°50' E 025°25'316.6
2018-Jun-17 00:00N 59°49' E 025°19'816.6
2018-Jun-16 23:30N 59°48' E 025°03'816.7
2018-Jun-16 23:00N 59°46' E 024°46'816.8
2018-Jun-16 22:30N 59°44' E 024°30'816.7
2018-Jun-16 22:00N 59°42' E 024°15'816.7
2018-Jun-16 21:30N 59°39' E 023°59'916.5
2018-Jun-16 20:59N 59°36' E 023°43'816.7
2018-Jun-16 20:30N 59°34' E 023°28'816.7
2018-Jun-16 20:00N 59°31' E 023°12'816.9
2018-Jun-16 19:30N 59°28' E 022°57'916.9
2018-Jun-16 18:59N 59°25' E 022°40'816.7
2018-Jun-16 18:30N 59°21' E 022°27'916.8
2018-Jun-16 17:59N 59°16' E 022°13'916.8
2018-Jun-16 17:27N 59°10' E 021°59'716.7
2018-Jun-16 17:00N 59°06' E 021°48'816.5
2018-Jun-16 16:30N 58°60' E 021°37'816.6
2018-Jun-16 16:00N 58°53' E 021°28'816.5
2018-Jun-16 15:30N 58°47' E 021°18'816.5
2018-Jun-16 15:00N 58°40' E 021°09'816.6
2018-Jun-16 14:30N 58°33' E 021°01'816.7
2018-Jun-16 14:00N 58°26' E 020°51'916.8
2018-Jun-16 13:28N 58°19' E 020°40'816.8
2018-Jun-16 13:00N 58°13' E 020°30'816.8
2018-Jun-16 12:30N 58°06' E 020°21'21116.3
2018-Jun-15 23:37N 55°42' E 015°40'216.3
2018-Jun-15 23:29N 55°41' E 015°36'916.4
2018-Jun-15 22:56N 55°37' E 015°22'716.5
2018-Jun-15 22:30N 55°34' E 015°12'816.8
2018-Jun-15 22:00N 55°30' E 014°59'816.8
2018-Jun-15 21:30N 55°26' E 014°46'816.6
2018-Jun-15 21:00N 55°21' E 014°33'816.2
2018-Jun-15 20:30N 55°14' E 014°25'816.6
2018-Jun-15 20:00N 55°08' E 014°16'816.5
2018-Jun-15 19:30N 55°02' E 014°06'816.6
2018-Jun-15 19:00N 54°59' E 013°53'1516.9
2018-Jun-15 18:07N 54°54' E 013°28'1016.6
2018-Jun-15 17:30N 54°51' E 013°11'2316.7
2018-Jun-15 16:07N 54°41' E 012°34'217.4
2018-Jun-15 16:00N 54°40' E 012°32'917.1
2018-Jun-15 15:30N 54°36' E 012°19'2214.4
2018-Jun-15 14:01N 54°25' E 011°47'717.6
2018-Jun-15 13:36N 54°28' E 011°36'217.7
2018-Jun-15 13:30N 54°29' E 011°33'917.1
2018-Jun-15 13:00N 54°32' E 011°20'917.5
2018-Jun-15 12:30N 54°36' E 011°07'917.1
2018-Jun-15 12:00N 54°41' E 010°54'816.0
2018-Jun-15 11:30N 54°49' E 010°51'917.4
2018-Jun-15 11:00N 54°57' E 010°56'817.0
2018-Jun-15 10:30N 55°05' E 011°02'816.8
2018-Jun-15 10:00N 55°13' E 011°06'1017.7
2018-Jun-15 09:27N 55°23' E 011°01'121 6.6
2018-Jun-14 15:02N 57°23' E 011°28'016.1
2018-Jun-14 15:00N 57°23' E 011°28'1115.6
2018-Jun-14 14:17N 57°32' E 011°15'415.9
2018-Jun-14 14:00N 57°35' E 011°09'815.7
2018-Jun-14 13:30N 57°40' E 010°57'9 0.6
2018-Jun-13 22:27N 57°41' E 010°41'1 2.2
2018-Jun-13 21:59N 57°42' E 010°42'4 7.5
2018-Jun-13 21:23N 57°46' E 010°45'2116.9
2018-Jun-13 20:09N 57°51' E 010°07'416.6
2018-Jun-13 19:53N 57°50' E 009°59'3317.1
2018-Jun-13 17:57N 57°43' E 008°58'18316.7
2018-Jun-13 06:58N 57°45' E 003°15'19215.9
2018-Jun-12 18:54N 58°35' W 002°37'718.0
2018-Jun-12 18:30N 58°40' W 002°47'1019.3
2018-Jun-12 18:00N 58°43' W 003°04'1019.2
2018-Jun-12 17:30N 58°43' W 003°23'  

Dump ship's entire track history